createdAt,value
2022-07-28T00:01:51.298Z,101318.09
2022-07-28T00:04:22.840Z,101321.00
2022-07-28T00:06:54.696Z,101317.72
2022-07-28T00:09:26.205Z,101316.31
2022-07-28T00:11:58.217Z,101323.31
2022-07-28T00:14:29.741Z,101317.59
2022-07-28T00:17:01.591Z,101317.59
2022-07-28T00:19:33.501Z,101323.59
2022-07-28T00:22:05.445Z,101320.91
2022-07-28T00:24:37.937Z,101330.44
2022-07-28T00:27:09.784Z,101320.75
2022-07-28T00:29:49.274Z,101326.56
2022-07-28T00:32:21.739Z,101323.16
2022-07-28T00:34:53.807Z,101321.72
2022-07-28T00:37:26.523Z,101321.91
2022-07-28T00:39:58.040Z,101326.69
2022-07-28T00:42:29.943Z,101328.75
2022-07-28T00:45:01.444Z,101325.28
2022-07-28T00:47:34.035Z,101323.63
2022-07-28T00:50:05.970Z,101318.72
2022-07-28T00:52:37.962Z,101315.44
2022-07-28T00:55:09.465Z,101315.91
2022-07-28T00:57:41.518Z,101316.94
2022-07-28T01:00:13.081Z,101327.06
2022-07-28T01:02:47.224Z,101319.50
2022-07-28T01:05:18.870Z,101324.09
2022-07-28T01:08:10.711Z,101329.66
2022-07-28T01:10:42.502Z,101329.50
2022-07-28T01:13:14.097Z,101328.53
2022-07-28T01:15:46.226Z,101328.38
2022-07-28T01:18:17.793Z,101329.59
2022-07-28T01:20:49.930Z,101328.19
2022-07-28T01:23:21.417Z,101328.41
2022-07-28T01:25:54.225Z,101323.03
2022-07-28T01:28:25.857Z,101325.34
2022-07-28T01:30:57.923Z,101325.34
2022-07-28T01:33:31.757Z,101325.34
2022-07-28T01:36:03.850Z,101330.69
2022-07-28T01:38:35.382Z,101325.13
2022-07-28T01:41:07.424Z,101328.03
2022-07-28T01:43:39.109Z,101334.63
2022-07-28T01:46:11.156Z,101330.53
2022-07-28T01:48:42.791Z,101336.31
2022-07-28T01:51:14.850Z,101339.00
2022-07-28T01:53:46.354Z,101320.25
2022-07-28T01:56:18.222Z,101331.19
2022-07-28T01:58:49.723Z,101326.88
2022-07-28T02:01:21.610Z,101326.06
2022-07-28T02:03:53.138Z,101332.44
2022-07-28T02:06:24.965Z,101329.97
2022-07-28T02:08:56.497Z,101323.66
2022-07-28T02:11:40.521Z,101323.69
2022-07-28T02:14:12.338Z,101319.41
2022-07-28T02:16:44.428Z,101325.19
2022-07-28T02:19:16.009Z,101325.41
2022-07-28T02:21:50.978Z,101325.84
2022-07-28T02:24:22.533Z,101327.09
2022-07-28T02:26:54.608Z,101327.91
2022-07-28T02:29:49.701Z,101331.81
2022-07-28T02:32:27.328Z,101330.19
2022-07-28T02:34:59.816Z,101329.38
2022-07-28T02:37:31.695Z,101331.44
2022-07-28T02:40:03.238Z,101327.94
2022-07-28T02:42:35.069Z,101334.31
2022-07-28T02:45:06.572Z,101334.31
2022-07-28T02:47:38.399Z,101325.69
2022-07-28T02:50:09.902Z,101334.75
2022-07-28T02:52:41.677Z,101336.59
2022-07-28T02:55:13.571Z,101343.41
2022-07-28T02:57:45.699Z,101347.13
2022-07-28T03:00:17.250Z,101349.63
2022-07-28T03:02:49.246Z,101348.63
2022-07-28T03:05:20.828Z,101351.09
2022-07-28T03:07:56.960Z,101349.66
2022-07-28T03:10:33.968Z,101348.41
2022-07-28T03:13:07.600Z,101350.44
2022-07-28T03:15:40.372Z,101344.72
2022-07-28T03:18:12.404Z,101357.84
2022-07-28T03:20:43.900Z,101363.81
2022-07-28T03:23:15.726Z,101371.59
2022-07-28T03:25:47.247Z,101362.78
2022-07-28T03:28:19.926Z,101371.38
2022-07-28T03:30:51.568Z,101377.56
2022-07-28T03:33:24.563Z,101381.03
2022-07-28T03:35:56.081Z,101375.09
2022-07-28T03:38:27.893Z,101315.19
2022-07-28T03:40:59.580Z,101368.91
2022-07-28T03:43:31.432Z,101373.25
2022-07-28T03:46:03.434Z,101374.28
2022-07-28T03:48:35.056Z,101377.97
2022-07-28T03:51:07.031Z,101373.84
2022-07-28T03:53:38.534Z,101378.81
2022-07-28T03:56:10.421Z,101387.81
2022-07-28T03:58:41.912Z,101390.69
2022-07-28T04:01:13.964Z,101394.16
2022-07-28T04:03:45.531Z,101390.63
2022-07-28T04:06:17.502Z,101393.88
2022-07-28T04:08:49.002Z,101397.97
2022-07-28T04:11:20.836Z,101397.09
2022-07-28T04:13:52.336Z,101391.28
2022-07-28T04:16:24.515Z,101400.06
2022-07-28T04:18:56.146Z,101390.53
2022-07-28T04:21:28.012Z,101393.94
2022-07-28T04:24:12.375Z,101396.94
2022-07-28T04:26:44.387Z,101399.50
2022-07-28T04:29:15.962Z,101396.13
2022-07-28T04:31:59.025Z,101400.13
2022-07-28T04:34:30.561Z,101400.00
2022-07-28T04:37:02.361Z,101395.34
2022-07-28T04:39:33.866Z,101392.94
2022-07-28T04:42:06.003Z,101401.66
2022-07-28T04:44:42.293Z,101395.91
2022-07-28T04:47:14.327Z,101407.06
2022-07-28T04:49:45.828Z,101394.31
2022-07-28T04:52:17.761Z,101405.91
2022-07-28T04:54:49.275Z,101412.97
2022-07-28T04:57:20.797Z,101410.13
2022-07-28T04:59:54.376Z,101407.31
2022-07-28T05:02:28.587Z,101405.84
2022-07-28T05:05:00.217Z,101407.75
2022-07-28T05:07:32.152Z,101405.28
2022-07-28T05:10:03.747Z,101413.59
2022-07-28T05:12:35.619Z,101411.50
2022-07-28T05:15:07.147Z,101411.59
2022-07-28T05:17:38.956Z,101408.09
2022-07-28T05:20:10.475Z,101408.13
2022-07-28T05:22:42.671Z,101407.63
2022-07-28T05:25:14.228Z,101406.03
2022-07-28T05:27:46.301Z,101409.16
2022-07-28T05:30:17.845Z,101410.00
2022-07-28T05:32:49.804Z,101409.16
2022-07-28T05:35:21.338Z,101422.38
2022-07-28T05:37:53.188Z,101420.81
2022-07-28T05:40:24.703Z,101413.38
2022-07-28T05:42:56.537Z,101411.19
2022-07-28T05:45:28.205Z,101423.88
2022-07-28T05:48:00.140Z,101420.38
2022-07-28T05:50:31.664Z,101428.69
2022-07-28T05:53:03.664Z,101435.06
2022-07-28T05:55:35.165Z,101434.41
2022-07-28T05:58:26.956Z,101428.00
2022-07-28T06:00:58.495Z,101427.69
2022-07-28T06:03:31.804Z,101425.41
2022-07-28T06:06:16.117Z,101427.19
2022-07-28T06:08:48.649Z,101424.53
2022-07-28T06:11:22.704Z,101424.91
2022-07-28T06:13:54.643Z,101436.09
2022-07-28T06:16:26.739Z,101431.31
2022-07-28T06:18:58.274Z,101435.59
2022-07-28T06:21:30.274Z,101433.50
2022-07-28T06:24:01.775Z,101429.06
2022-07-28T06:26:34.866Z,101439.94
2022-07-28T06:29:06.363Z,101435.56
2022-07-28T06:31:39.374Z,101443.69
2022-07-28T06:34:11.145Z,101439.22
2022-07-28T06:36:43.399Z,101438.44
2022-07-28T06:39:14.961Z,101445.59
2022-07-28T06:41:46.952Z,101438.38
2022-07-28T06:44:18.818Z,101432.09
2022-07-28T06:46:51.145Z,101438.50
2022-07-28T06:49:22.780Z,101434.94
2022-07-28T06:51:55.144Z,101428.66
2022-07-28T06:54:26.693Z,101428.13
2022-07-28T06:56:58.681Z,101369.06
2022-07-28T06:59:33.655Z,101424.16
2022-07-28T07:02:05.554Z,101424.16
2022-07-28T07:04:37.188Z,101421.19
2022-07-28T07:07:14.832Z,101425.25
2022-07-28T07:09:48.749Z,101423.09
2022-07-28T07:12:20.712Z,101418.47
2022-07-28T07:14:52.376Z,101420.59
2022-07-28T07:17:24.324Z,101419.66
2022-07-28T07:19:55.935Z,101418.38
2022-07-28T07:22:27.891Z,101426.41
2022-07-28T07:24:59.477Z,101419.31
2022-07-28T07:27:31.418Z,101421.00
2022-07-28T07:30:04.414Z,101425.34
2022-07-28T07:32:36.379Z,101419.63
2022-07-28T07:35:08.033Z,101419.28
2022-07-28T07:37:40.072Z,101420.28
2022-07-28T07:40:11.729Z,101426.00
2022-07-28T07:42:43.647Z,101421.25
2022-07-28T07:45:15.233Z,101424.22
2022-07-28T07:47:47.651Z,101420.03
2022-07-28T07:50:19.228Z,101415.44
2022-07-28T07:52:51.355Z,101422.28
2022-07-28T07:55:23.155Z,101423.13
2022-07-28T07:57:55.155Z,101422.59
2022-07-28T08:00:28.578Z,101423.59
2022-07-28T08:03:01.438Z,101423.19
2022-07-28T08:05:35.442Z,101420.94
2022-07-28T08:08:08.340Z,101421.25
2022-07-28T08:10:39.911Z,101423.03
2022-07-28T08:13:11.871Z,101422.47
2022-07-28T08:15:43.522Z,101417.28
2022-07-28T08:18:15.533Z,101415.88
2022-07-28T08:20:47.170Z,101419.59
2022-07-28T08:23:22.983Z,101420.94
2022-07-28T08:25:57.672Z,101417.75
2022-07-28T08:28:29.762Z,101417.44
2022-07-28T08:31:01.488Z,101426.38
2022-07-28T08:33:33.442Z,101432.53
2022-07-28T08:36:04.989Z,101429.47
2022-07-28T08:38:37.074Z,101428.94
2022-07-28T08:41:08.637Z,101425.31
2022-07-28T08:43:40.894Z,101431.25
2022-07-28T08:46:12.502Z,101436.31
2022-07-28T08:48:44.529Z,101430.25
2022-07-28T08:51:16.163Z,101437.53
2022-07-28T08:53:48.051Z,101432.59
2022-07-28T08:56:19.667Z,101429.91
2022-07-28T08:58:51.639Z,101435.78
2022-07-28T09:01:23.224Z,101432.53
2022-07-28T09:03:55.302Z,101428.06
2022-07-28T09:06:26.973Z,101428.31
2022-07-28T09:08:58.888Z,101425.31
2022-07-28T09:11:30.479Z,101432.78
2022-07-28T09:14:02.438Z,101426.94
2022-07-28T09:16:34.006Z,101422.00
2022-07-28T09:19:05.600Z,101432.75
2022-07-28T09:21:37.162Z,101428.53
2022-07-28T09:24:09.142Z,101422.53
2022-07-28T09:26:40.670Z,101424.72
2022-07-28T09:29:12.672Z,101429.41
2022-07-28T09:31:44.343Z,101425.44
2022-07-28T09:34:18.366Z,101423.91
2022-07-28T09:36:50.033Z,101421.56
2022-07-28T09:39:21.623Z,101420.69
2022-07-28T09:41:53.226Z,101431.44
2022-07-28T09:44:25.089Z,101425.38
2022-07-28T09:46:56.895Z,101423.06
2022-07-28T09:49:29.122Z,101424.34
2022-07-28T09:52:01.233Z,101422.75
2022-07-28T09:54:37.352Z,101415.66
2022-07-28T09:57:12.425Z,101419.38
2022-07-28T09:59:45.440Z,101416.25
2022-07-28T10:02:23.994Z,101421.22
2022-07-28T10:04:57.032Z,101233.47
2022-07-28T10:07:30.314Z,101409.69
2022-07-28T10:10:01.838Z,101408.78
2022-07-28T10:12:33.823Z,101406.84
2022-07-28T10:15:31.248Z,101400.69
2022-07-28T10:18:03.501Z,101397.41
2022-07-28T10:20:35.280Z,101400.31
2022-07-28T10:23:07.295Z,101404.56
2022-07-28T10:25:38.876Z,101405.59
2022-07-28T10:28:10.888Z,101399.31
2022-07-28T10:30:42.487Z,101400.38
2022-07-28T10:33:14.464Z,101396.47
2022-07-28T10:35:54.839Z,101389.81
2022-07-28T10:38:30.417Z,101395.63
2022-07-28T10:41:01.989Z,101392.25
2022-07-28T10:43:33.979Z,101389.38
2022-07-28T10:46:07.545Z,101389.25
2022-07-28T10:48:40.250Z,101378.59
2022-07-28T10:51:15.187Z,101381.72
2022-07-28T10:53:47.269Z,101381.72
2022-07-28T10:56:18.966Z,101380.97
2022-07-28T10:58:51.049Z,101382.81
2022-07-28T11:01:47.233Z,101388.00
2022-07-28T11:04:15.030Z,101379.22
2022-07-28T11:06:48.154Z,101380.75
2022-07-28T11:09:20.134Z,101382.19
2022-07-28T11:11:51.922Z,101374.69
2022-07-28T11:14:24.476Z,101379.56
2022-07-28T11:16:56.288Z,101379.66
2022-07-28T11:19:36.529Z,101369.66
2022-07-28T11:22:24.502Z,101374.88
2022-07-28T11:24:56.805Z,101371.19
2022-07-28T11:27:30.011Z,101365.03
2022-07-28T11:30:01.613Z,101365.66
2022-07-28T11:32:42.231Z,101376.00
2022-07-28T11:35:15.769Z,101359.47
2022-07-28T11:37:47.732Z,101355.88
2022-07-28T11:40:19.297Z,101354.28
2022-07-28T11:42:51.402Z,101353.03
2022-07-28T11:45:23.371Z,101347.97
2022-07-28T11:47:55.651Z,101341.00
2022-07-28T11:50:27.211Z,101350.84
2022-07-28T11:53:00.689Z,101350.50
2022-07-28T11:55:55.391Z,101336.22
2022-07-28T11:58:25.776Z,101341.00
2022-07-28T12:01:00.893Z,101342.03
2022-07-28T12:03:49.133Z,101343.91
2022-07-28T12:06:29.323Z,101350.00
2022-07-28T12:09:02.701Z,101339.47
2022-07-28T12:11:34.345Z,101336.38
2022-07-28T12:14:06.355Z,101328.44
2022-07-28T12:16:38.044Z,101331.09
2022-07-28T12:19:11.412Z,101324.44
2022-07-28T12:21:46.138Z,101325.69
2022-07-28T12:24:21.333Z,101327.91
2022-07-28T12:26:53.251Z,101318.81
2022-07-28T12:29:35.479Z,101319.84
2022-07-28T12:32:10.187Z,101329.03
2022-07-28T12:34:43.999Z,101334.09
2022-07-28T12:37:15.929Z,101324.69
2022-07-28T12:39:48.010Z,101326.06
2022-07-28T12:42:19.898Z,101325.13
2022-07-28T12:44:54.809Z,101313.56
2022-07-28T12:47:27.591Z,101323.94
2022-07-28T12:50:03.590Z,101315.03
2022-07-28T12:52:38.131Z,101321.84
2022-07-28T12:55:10.043Z,101323.06
2022-07-28T12:57:48.305Z,101312.16
2022-07-28T13:00:21.714Z,101307.25
2022-07-28T13:02:53.761Z,101305.28
2022-07-28T13:05:27.639Z,101237.47
2022-07-28T13:07:59.829Z,101297.81
2022-07-28T13:10:33.649Z,101289.13
2022-07-28T13:13:06.792Z,101297.47
2022-07-28T13:15:38.703Z,101296.69
2022-07-28T13:18:10.743Z,101291.13
2022-07-28T13:20:42.306Z,101286.34
2022-07-28T13:23:14.253Z,101278.94
2022-07-28T13:25:45.878Z,101282.44
2022-07-28T13:28:17.845Z,101288.44
2022-07-28T13:30:49.398Z,101286.03
2022-07-28T13:33:21.260Z,101284.81
2022-07-28T13:35:52.948Z,101275.69
2022-07-28T13:38:24.826Z,101279.03
2022-07-28T13:40:56.450Z,101283.53
2022-07-28T13:43:36.011Z,101283.78
2022-07-28T13:46:08.021Z,101274.00
2022-07-28T13:48:58.025Z,101276.16
2022-07-28T13:51:31.631Z,101280.22
2022-07-28T13:54:06.740Z,101275.78
2022-07-28T13:56:38.258Z,101277.53
2022-07-28T13:59:10.191Z,101274.22
2022-07-28T14:01:49.703Z,101273.66
2022-07-28T14:04:22.659Z,101269.66
2022-07-28T14:06:54.403Z,101271.84
2022-07-28T14:09:25.952Z,101265.19
2022-07-28T14:11:57.581Z,101259.59
2022-07-28T14:14:30.917Z,101260.72
2022-07-28T14:17:19.681Z,101266.00
2022-07-28T14:19:54.775Z,101252.56
2022-07-28T14:22:26.322Z,101248.84
2022-07-28T14:24:58.159Z,101248.41
2022-07-28T14:27:29.717Z,101254.13
2022-07-28T14:30:03.447Z,101242.00
2022-07-28T14:32:36.005Z,101230.50
2022-07-28T14:35:07.610Z,101239.25
2022-07-28T14:40:30.943Z,101236.84
2022-07-28T14:43:02.883Z,101230.88
2022-07-28T14:45:34.471Z,101223.25
2022-07-28T14:48:26.310Z,101218.22
2022-07-28T14:50:58.596Z,101220.53
2022-07-28T14:53:30.201Z,101209.44
2022-07-28T14:56:01.729Z,101221.44
2022-07-28T14:58:33.263Z,101219.88
2022-07-28T15:01:04.786Z,101217.81
2022-07-28T15:03:36.864Z,101213.81
2022-07-28T15:06:08.494Z,101218.03
2022-07-28T15:08:40.354Z,101220.19
2022-07-28T15:11:11.874Z,101217.09
2022-07-28T15:13:43.824Z,101222.19
2022-07-28T15:16:15.426Z,101210.81
2022-07-28T15:18:47.507Z,101207.72
2022-07-28T15:21:19.066Z,101215.47
2022-07-28T15:23:50.900Z,101214.75
2022-07-28T15:26:22.452Z,101218.69
2022-07-28T15:28:54.650Z,101216.56
2022-07-28T15:31:26.254Z,101212.19
2022-07-28T15:34:02.052Z,101210.59
2022-07-28T15:36:33.601Z,101205.34
2022-07-28T15:39:09.348Z,101202.44
2022-07-28T15:41:40.980Z,101200.59
2022-07-28T15:44:13.150Z,101204.66
2022-07-28T15:46:44.930Z,101204.25
2022-07-28T15:49:18.688Z,101195.81
2022-07-28T15:51:50.306Z,101198.66
2022-07-28T15:54:22.161Z,101199.31
2022-07-28T15:56:53.683Z,101202.13
2022-07-28T15:59:26.692Z,101196.97
2022-07-28T16:02:18.381Z,101193.41
2022-07-28T16:04:53.697Z,101195.00
2022-07-28T16:07:28.425Z,101190.13
2022-07-28T16:10:00.208Z,101194.06
2022-07-28T16:12:31.851Z,101191.63
2022-07-28T16:15:03.404Z,101195.00
2022-07-28T16:17:35.030Z,101190.00
2022-07-28T16:20:10.248Z,101191.38
2022-07-28T16:22:42.024Z,101196.19
2022-07-28T16:25:17.141Z,101192.44
2022-07-28T16:27:48.661Z,101186.28
2022-07-28T16:30:20.529Z,101185.41
2022-07-28T16:32:52.120Z,101187.56
2022-07-28T16:35:24.029Z,101185.28
2022-07-28T16:37:55.556Z,101194.22
2022-07-28T16:40:27.466Z,101191.03
2022-07-28T16:43:04.194Z,101196.13
2022-07-28T16:45:36.081Z,101191.66
2022-07-28T16:48:07.659Z,101200.06
2022-07-28T16:50:39.548Z,101202.88
2022-07-28T16:53:12.537Z,101196.75
2022-07-28T16:55:45.355Z,101195.03
2022-07-28T16:58:18.869Z,101197.97
2022-07-28T17:00:50.425Z,101198.75
2022-07-28T17:03:22.304Z,101188.88
2022-07-28T17:05:53.857Z,101195.41
2022-07-28T17:08:25.418Z,101128.94
2022-07-28T17:10:56.994Z,101193.47
2022-07-28T17:13:28.932Z,101193.03
2022-07-28T17:16:02.738Z,101195.50
2022-07-28T17:18:35.387Z,101198.94
2022-07-28T17:21:06.935Z,101203.53
2022-07-28T17:23:39.581Z,101204.94
2022-07-28T17:29:03.015Z,101197.28
2022-07-28T17:31:34.598Z,101207.78
2022-07-28T17:34:06.712Z,101205.28
2022-07-28T17:36:41.261Z,101204.19
2022-07-28T17:39:14.120Z,101210.44
2022-07-28T17:41:45.755Z,101204.97
2022-07-28T17:44:18.093Z,101202.31
2022-07-28T17:46:50.057Z,101204.75
2022-07-28T17:49:22.012Z,101204.75
2022-07-28T17:51:53.626Z,101204.53
2022-07-28T17:54:25.550Z,101202.72
2022-07-28T17:56:57.328Z,101197.63
2022-07-28T17:59:34.042Z,101201.63
2022-07-28T18:02:20.798Z,101202.09
2022-07-28T18:04:53.564Z,101203.94
2022-07-28T18:07:25.125Z,101202.41
2022-07-28T18:09:57.033Z,101205.50
2022-07-28T18:12:28.550Z,101203.16
2022-07-28T18:15:00.595Z,101208.31
2022-07-28T18:17:32.968Z,101202.50
2022-07-28T18:20:04.828Z,101198.44
2022-07-28T18:22:36.358Z,101203.00
2022-07-28T18:25:09.705Z,101209.88
2022-07-28T18:27:41.233Z,101208.03
2022-07-28T18:30:12.765Z,101213.25
2022-07-28T18:32:44.329Z,101204.34
2022-07-28T18:35:16.246Z,101207.75
2022-07-28T18:37:47.789Z,101202.16
2022-07-28T18:40:21.970Z,101203.59
2022-07-28T18:42:53.526Z,101200.69
2022-07-28T18:45:25.122Z,101204.84
2022-07-28T18:47:58.722Z,101200.91
2022-07-28T18:50:31.699Z,101199.34
2022-07-28T18:53:03.513Z,101203.25
2022-07-28T18:55:35.182Z,101199.47
2022-07-28T18:58:06.795Z,101200.38
2022-07-28T19:00:38.495Z,101205.63
2022-07-28T19:03:10.080Z,101204.31
2022-07-28T19:05:45.972Z,101209.25
2022-07-28T19:08:18.077Z,101204.69
2022-07-28T19:10:50.100Z,101209.38
2022-07-28T19:13:21.783Z,101215.13
2022-07-28T19:15:53.738Z,101209.78
2022-07-28T19:18:25.340Z,101208.16
2022-07-28T19:20:57.283Z,101216.63
2022-07-28T19:23:30.342Z,101217.47
2022-07-28T19:26:03.024Z,101211.25
2022-07-28T19:28:34.552Z,101214.56
2022-07-28T19:31:10.558Z,101211.28
2022-07-28T19:33:43.898Z,101208.03
2022-07-28T19:36:15.887Z,101215.66
2022-07-28T19:38:48.957Z,101213.50
2022-07-28T19:41:20.978Z,101211.91
2022-07-28T19:43:52.886Z,101212.47
2022-07-28T19:46:24.717Z,101210.88
2022-07-28T19:48:58.549Z,101209.53
2022-07-28T19:51:30.588Z,101215.50
2022-07-28T19:54:02.491Z,101217.69
2022-07-28T19:56:34.110Z,101224.75
2022-07-28T19:59:06.314Z,101225.56
2022-07-28T20:01:39.806Z,101233.44
2022-07-28T20:04:18.334Z,101235.06
2022-07-28T20:06:55.579Z,101234.81
2022-07-28T20:09:27.447Z,101236.16
2022-07-28T20:11:59.023Z,101242.13
2022-07-28T20:14:30.822Z,101246.44
2022-07-28T20:17:02.528Z,101243.19
2022-07-28T20:19:34.625Z,101245.06
2022-07-28T20:22:07.885Z,101242.91
2022-07-28T20:24:39.482Z,101254.28
2022-07-28T20:27:11.118Z,101249.16
2022-07-28T20:29:43.146Z,101252.13
2022-07-28T20:32:14.706Z,101248.88
2022-07-28T20:34:47.784Z,101247.81
2022-07-28T20:37:35.939Z,101254.00
2022-07-28T20:40:09.236Z,101251.28
2022-07-28T20:42:40.886Z,101257.50
2022-07-28T20:45:12.483Z,101258.88
2022-07-28T20:47:44.722Z,101259.94
2022-07-28T20:50:16.300Z,101256.41
2022-07-28T20:52:48.745Z,101254.78
2022-07-28T20:55:21.165Z,101259.13
2022-07-28T20:57:55.827Z,101267.75
2022-07-28T21:00:28.782Z,101260.44
2022-07-28T21:03:00.470Z,101258.25
2022-07-28T21:05:35.493Z,101257.44
2022-07-28T21:08:09.462Z,101265.50
2022-07-28T21:10:48.402Z,101266.03
2022-07-28T21:13:20.453Z,101266.81
2022-07-28T21:15:52.104Z,101265.97
2022-07-28T21:18:23.980Z,101270.00
2022-07-28T21:20:55.551Z,101268.91
2022-07-28T21:23:27.683Z,101266.44
2022-07-28T21:25:59.300Z,101269.13
2022-07-28T21:28:50.314Z,101278.84
2022-07-28T21:31:21.886Z,101277.72
2022-07-28T21:33:53.710Z,101276.63
2022-07-28T21:36:25.366Z,101281.97
2022-07-28T21:38:57.497Z,101283.84
2022-07-28T21:41:29.053Z,101280.03
2022-07-28T21:44:08.730Z,101281.38
2022-07-28T21:46:42.377Z,101281.91
2022-07-28T21:49:14.324Z,101277.03
2022-07-28T21:51:45.935Z,101278.06
2022-07-28T21:54:18.165Z,101284.97
2022-07-28T21:56:50.198Z,101282.22
2022-07-28T21:59:22.173Z,101286.53
2022-07-28T22:01:53.780Z,101116.63
2022-07-28T22:04:25.848Z,101279.16
2022-07-28T22:06:57.836Z,101294.50
2022-07-28T22:09:31.871Z,101284.75
2022-07-28T22:12:06.463Z,101298.19
2022-07-28T22:14:38.391Z,101290.38
2022-07-28T22:17:09.986Z,101294.91
2022-07-28T22:19:42.277Z,101292.47
2022-07-28T22:22:13.886Z,101306.19
2022-07-28T22:24:45.827Z,101303.44
2022-07-28T22:27:17.394Z,101305.53
2022-07-28T22:29:50.081Z,101303.84
2022-07-28T22:32:29.110Z,101308.69
2022-07-28T22:35:01.343Z,101308.66
2022-07-28T22:37:32.911Z,101310.78
2022-07-28T22:40:04.940Z,101310.69
2022-07-28T22:42:36.526Z,101187.88
2022-07-28T22:45:08.575Z,101321.38
2022-07-28T22:47:40.179Z,101325.88
2022-07-28T22:50:12.131Z,101324.25
2022-07-28T22:52:43.706Z,101311.50
2022-07-28T22:55:15.676Z,101318.78
2022-07-28T22:57:48.936Z,101320.38
2022-07-28T23:00:20.866Z,101321.13
2022-07-28T23:02:52.898Z,101323.41
2022-07-28T23:05:25.005Z,101330.69
2022-07-28T23:07:58.893Z,101333.88
2022-07-28T23:10:31.211Z,101334.63
2022-07-28T23:13:03.429Z,101323.53
2022-07-28T23:15:40.025Z,101336.94
2022-07-28T23:18:16.344Z,101331.81
2022-07-28T23:20:48.772Z,101340.06
2022-07-28T23:23:21.655Z,101337.88
2022-07-28T23:25:53.665Z,101331.09
2022-07-28T23:28:25.730Z,101326.94
2022-07-28T23:30:57.327Z,101325.31
2022-07-28T23:33:56.095Z,101332.00
2022-07-28T23:36:26.373Z,101326.78
2022-07-28T23:38:58.957Z,101330.56
2022-07-28T23:41:30.537Z,101326.72
2022-07-28T23:44:02.517Z,101329.91
2022-07-28T23:46:34.198Z,101325.50
2022-07-28T23:49:06.397Z,101327.16
2022-07-28T23:51:47.614Z,101329.28
2022-07-28T23:54:20.610Z,101324.03
2022-07-28T23:56:52.452Z,101330.72
2022-07-28T23:59:24.440Z,101324.75
